Sect Salistral, Puerto Rico
Current Conditions -  °F | °C
As of 12:50 PM on Thursday 18 Dec 2014 (Local Time) from TJBQ Reporting Station
Broken Clouds Broken Clouds  
Wind Chill: 79°   Ceiling: 3900
Heat Index: 81°   Visibility: 10mi
Dew Point: 66°   Wind: 18mph
Humidity: 65%   Direction: 70°ENE
Pressure: 30.04"   Gusts: 25mph
Location:  18.0093°N, 66.6209°W
Report Text: TJBQ 181650Z 07016G22KT 10SM SCT030 BKN039 BKN048 26/19 A3004 RMK RWY08 ATIS W
Loading
Personal Weather Stations






























Interactive Weather Map New forecast layout! Learn more

10-Day Weather Forecast

Advertisements
Track Severe Weather on mobile